Airport View

Enter AWOS ICAO identifier for current METAR.

ex. KFNL

KFOD 251856Z AUTO 32008KT 10SM OVC009 12/11 A2998 RMK AO2 SLP178 T01220111

25 Sep 2018 19:13

Frequency: 118.775

Phone: 515-955-5490

Other Area AWOS: KEBS - KCAV - KAXA - KBNW

TAF AMD KFOD 251732Z 2518/2618 34009KT P6SM -SHRA OVC005 FM251900 33008KT P6SM VCSH BKN015 FM252200 33009KT P6SM BKN045 FM260400 27005KT P6SM FEW250 FM261400 30009KT P6SM SKC